createdAt,value
2023-05-10T00:00:30.016Z,1.83
2023-05-10T00:02:57.945Z,2.00
2023-05-10T00:05:25.704Z,1.90
2023-05-10T00:07:53.345Z,2.30
2023-05-10T00:10:21.157Z,2.72
2023-05-10T00:12:48.761Z,2.00
2023-05-10T00:15:16.211Z,2.40
2023-05-10T00:17:44.053Z,2.30
2023-05-10T00:20:12.018Z,1.90
2023-05-10T00:22:39.576Z,2.20
2023-05-10T00:25:08.309Z,2.78
2023-05-10T00:27:35.836Z,2.62
2023-05-10T00:30:03.532Z,2.20
2023-05-10T00:32:31.542Z,2.70
2023-05-10T00:34:59.187Z,2.78
2023-05-10T00:37:28.150Z,2.97
2023-05-10T00:39:55.954Z,2.97
2023-05-10T00:42:23.793Z,3.10
2023-05-10T00:44:52.797Z,2.83
2023-05-10T00:47:20.666Z,3.00
2023-05-10T00:49:48.282Z,2.67
2023-05-10T00:52:15.858Z,3.00
2023-05-10T00:54:43.715Z,2.65
2023-05-10T00:57:11.969Z,2.70
2023-05-10T00:59:39.729Z,3.03
2023-05-10T01:02:07.934Z,2.42
2023-05-10T01:04:36.462Z,2.50
2023-05-10T01:07:04.468Z,2.42
2023-05-10T01:09:33.202Z,2.60
2023-05-10T01:12:01.669Z,2.80
2023-05-10T01:14:31.067Z,2.67
2023-05-10T01:16:59.196Z,2.60
2023-05-10T01:19:28.169Z,3.17
2023-05-10T01:22:23.910Z,3.00
2023-05-10T01:25:09.134Z,2.50
2023-05-10T01:27:59.156Z,2.45
2023-05-10T01:30:42.519Z,3.05
2023-05-10T01:33:25.784Z,3.25
2023-05-10T01:35:54.491Z,3.27
2023-05-10T01:38:38.354Z,3.05
2023-05-10T01:41:27.063Z,2.92
2023-05-10T01:44:13.530Z,3.42
2023-05-10T01:46:41.916Z,3.22
2023-05-10T01:49:12.914Z,2.90
2023-05-10T01:51:44.333Z,2.92
2023-05-10T01:54:13.499Z,3.22
2023-05-10T01:56:43.317Z,2.78
2023-05-10T01:59:15.143Z,3.12
2023-05-10T02:01:44.002Z,3.30
2023-05-10T02:04:13.022Z,3.12
2023-05-10T02:06:41.310Z,2.53
2023-05-10T02:09:10.320Z,2.97
2023-05-10T02:11:42.840Z,2.90
2023-05-10T02:14:11.469Z,3.37
2023-05-10T02:16:40.080Z,3.40
2023-05-10T02:19:09.542Z,3.15
2023-05-10T02:21:38.894Z,3.40
2023-05-10T02:24:07.548Z,3.03
2023-05-10T02:26:36.343Z,3.10
2023-05-10T02:29:04.856Z,3.58
2023-05-10T02:31:34.499Z,2.97
2023-05-10T02:34:03.770Z,3.40
2023-05-10T02:36:32.480Z,3.08
2023-05-10T02:39:01.688Z,3.20
2023-05-10T02:41:29.846Z,3.10
2023-05-10T02:43:58.631Z,2.75
2023-05-10T02:46:26.581Z,3.08
2023-05-10T02:48:54.642Z,3.30
2023-05-10T02:51:26.039Z,2.80
2023-05-10T02:53:54.818Z,2.80
2023-05-10T02:56:30.237Z,2.78
2023-05-10T02:58:58.057Z,2.65
2023-05-10T03:01:25.691Z,2.70
2023-05-10T03:03:53.315Z,3.57
2023-05-10T03:06:21.206Z,2.65
2023-05-10T03:08:48.780Z,2.83
2023-05-10T03:11:37.773Z,2.55
2023-05-10T03:14:32.557Z,2.97
2023-05-10T03:17:23.867Z,2.80
2023-05-10T03:19:59.919Z,2.70
2023-05-10T03:22:38.683Z,2.62
2023-05-10T03:25:08.190Z,2.90
2023-05-10T03:27:37.763Z,2.62
2023-05-10T03:30:06.793Z,3.07
2023-05-10T03:32:35.818Z,2.70
2023-05-10T03:35:10.642Z,2.70
2023-05-10T03:37:39.044Z,2.97
2023-05-10T03:40:07.300Z,3.10
2023-05-10T03:42:35.009Z,2.80
2023-05-10T03:45:03.039Z,2.85
2023-05-10T03:47:30.872Z,3.33
2023-05-10T03:49:59.098Z,2.72
2023-05-10T03:52:27.093Z,3.10
2023-05-10T03:54:56.417Z,2.90
2023-05-10T03:57:24.399Z,2.95
2023-05-10T03:59:52.385Z,2.83
2023-05-10T04:02:20.054Z,2.60
2023-05-10T04:04:47.931Z,2.90
2023-05-10T04:07:15.647Z,3.00
2023-05-10T04:09:43.404Z,3.42
2023-05-10T04:12:11.282Z,2.95
2023-05-10T04:14:40.109Z,3.30
2023-05-10T04:17:07.743Z,3.28
2023-05-10T04:19:35.788Z,3.00
2023-05-10T04:22:03.895Z,2.67
2023-05-10T04:24:31.467Z,2.97
2023-05-10T04:26:59.268Z,3.10
2023-05-10T04:29:27.639Z,2.92
2023-05-10T04:31:56.301Z,2.93
2023-05-10T04:34:24.076Z,2.83
2023-05-10T04:36:51.661Z,3.47
2023-05-10T04:39:19.170Z,2.75
2023-05-10T04:41:46.971Z,3.00
2023-05-10T04:44:14.514Z,2.83
2023-05-10T04:46:42.184Z,3.20
2023-05-10T04:49:10.145Z,2.90
2023-05-10T04:51:37.696Z,3.22
2023-05-10T04:54:06.757Z,2.90
2023-05-10T04:56:34.862Z,2.90
2023-05-10T04:59:02.463Z,3.25
2023-05-10T05:01:29.929Z,2.90
2023-05-10T05:03:58.109Z,2.87
2023-05-10T05:06:26.136Z,3.60
2023-05-10T05:08:53.791Z,3.37
2023-05-10T05:11:22.109Z,2.92
2023-05-10T05:13:49.694Z,3.50
2023-05-10T05:16:17.640Z,3.40
2023-05-10T05:18:45.625Z,3.05
2023-05-10T05:21:20.479Z,3.30
2023-05-10T05:23:48.498Z,2.67
2023-05-10T05:26:16.141Z,3.15
2023-05-10T05:28:44.000Z,3.00
2023-05-10T05:31:11.894Z,4.12
2023-05-10T05:33:39.403Z,3.50
2023-05-10T05:36:07.232Z,3.45
2023-05-10T05:38:35.115Z,3.55
2023-05-10T05:41:02.650Z,3.28
2023-05-10T05:43:30.480Z,2.70
2023-05-10T05:46:00.910Z,2.77
2023-05-10T05:48:28.458Z,2.97
2023-05-10T05:50:57.556Z,2.92
2023-05-10T05:53:25.576Z,3.30
2023-05-10T05:55:57.365Z,3.03
2023-05-10T05:58:26.136Z,3.40
2023-05-10T06:00:53.797Z,3.08
2023-05-10T06:03:21.926Z,3.00
2023-05-10T06:05:49.778Z,3.20
2023-05-10T06:08:17.390Z,3.17
2023-05-10T06:10:46.299Z,3.07
2023-05-10T06:13:13.975Z,3.33
2023-05-10T06:15:41.724Z,2.95
2023-05-10T06:18:09.617Z,3.35
2023-05-10T06:20:37.359Z,3.70
2023-05-10T06:23:05.016Z,2.90
2023-05-10T06:25:32.789Z,3.35
2023-05-10T06:28:00.926Z,3.37
2023-05-10T06:30:29.788Z,3.60
2023-05-10T06:32:58.257Z,2.95
2023-05-10T06:35:26.274Z,2.93
2023-05-10T06:37:54.176Z,2.70
2023-05-10T06:40:22.053Z,3.17
2023-05-10T06:42:49.538Z,3.30
2023-05-10T06:45:17.734Z,3.12
2023-05-10T06:47:45.909Z,3.23
2023-05-10T06:50:13.878Z,3.70
2023-05-10T06:52:41.406Z,2.90
2023-05-10T06:55:30.194Z,3.28
2023-05-10T06:57:57.723Z,3.55
2023-05-10T07:00:25.660Z,3.23
2023-05-10T07:02:53.351Z,3.00
2023-05-10T07:05:21.526Z,2.70
2023-05-10T07:07:49.612Z,3.45
2023-05-10T07:10:17.183Z,2.80
2023-05-10T07:12:44.677Z,3.53
2023-05-10T07:15:12.511Z,3.05
2023-05-10T07:17:40.798Z,2.92
2023-05-10T07:20:09.702Z,2.92
2023-05-10T07:22:37.458Z,3.10
2023-05-10T07:25:05.294Z,2.93
2023-05-10T07:27:33.579Z,2.80
2023-05-10T07:30:01.631Z,3.20
2023-05-10T07:32:29.379Z,3.10
2023-05-10T07:34:57.119Z,2.92
2023-05-10T07:37:24.918Z,3.23
2023-05-10T07:39:52.493Z,2.58
2023-05-10T07:42:19.993Z,2.97
2023-05-10T07:44:48.207Z,2.65
2023-05-10T07:47:15.682Z,2.78
2023-05-10T07:49:43.321Z,2.77
2023-05-10T07:52:11.185Z,2.62
2023-05-10T07:54:39.027Z,2.70
2023-05-10T07:57:07.282Z,2.47
2023-05-10T07:59:35.112Z,2.90
2023-05-10T08:02:02.665Z,2.60
2023-05-10T08:04:30.850Z,3.05
2023-05-10T08:06:58.323Z,2.90
2023-05-10T08:09:25.853Z,2.87
2023-05-10T08:11:53.688Z,3.08
2023-05-10T08:14:21.510Z,2.87
2023-05-10T08:16:49.087Z,2.92
2023-05-10T08:19:20.130Z,2.90
2023-05-10T08:21:48.015Z,2.83
2023-05-10T08:24:15.989Z,2.22
2023-05-10T08:26:44.040Z,2.77
2023-05-10T08:29:11.555Z,2.35
2023-05-10T08:31:39.144Z,2.70
2023-05-10T08:34:07.056Z,2.25
2023-05-10T08:36:34.627Z,2.40
2023-05-10T08:39:02.116Z,2.50
2023-05-10T08:41:31.074Z,2.62
2023-05-10T08:43:59.217Z,2.42
2023-05-10T08:46:27.979Z,2.30
2023-05-10T08:48:56.885Z,2.45
2023-05-10T08:51:27.725Z,2.70
2023-05-10T08:53:55.410Z,2.35
2023-05-10T08:56:23.250Z,2.33
2023-05-10T08:58:51.661Z,2.60
2023-05-10T09:01:19.794Z,2.85
2023-05-10T09:03:48.817Z,2.53
2023-05-10T09:06:16.815Z,2.60
2023-05-10T09:08:44.466Z,2.60
2023-05-10T09:11:13.229Z,2.30
2023-05-10T09:13:40.816Z,2.25
2023-05-10T09:16:20.534Z,2.63
2023-05-10T09:18:50.640Z,2.15
2023-05-10T09:21:18.354Z,2.30
2023-05-10T09:23:48.638Z,2.10
2023-05-10T09:26:17.226Z,1.87
2023-05-10T09:28:54.508Z,2.10
2023-05-10T09:31:22.777Z,2.22
2023-05-10T09:33:50.789Z,2.40
2023-05-10T09:36:18.564Z,2.53
2023-05-10T09:38:53.714Z,2.45
2023-05-10T09:41:24.430Z,2.00
2023-05-10T09:43:56.909Z,2.12
2023-05-10T09:46:24.666Z,2.20
2023-05-10T09:48:52.630Z,1.95
2023-05-10T09:51:27.876Z,1.92
2023-05-10T09:54:17.735Z,1.70
2023-05-10T09:56:45.416Z,1.83
2023-05-10T09:59:13.853Z,1.90
2023-05-10T10:01:42.237Z,1.90
2023-05-10T10:04:10.767Z,2.45
2023-05-10T10:06:40.193Z,2.83
2023-05-10T10:09:08.554Z,2.55
2023-05-10T10:11:37.784Z,1.90
2023-05-10T10:14:06.360Z,2.67
2023-05-10T10:16:34.118Z,2.30
2023-05-10T10:19:02.434Z,2.90
2023-05-10T10:21:30.326Z,2.55
2023-05-10T10:23:57.866Z,2.10
2023-05-10T10:26:30.013Z,2.30
2023-05-10T10:29:17.162Z,2.35
2023-05-10T10:32:05.702Z,2.07
2023-05-10T10:34:33.628Z,2.33
2023-05-10T10:37:06.428Z,2.42
2023-05-10T10:39:34.193Z,2.20
2023-05-10T10:42:03.803Z,2.08
2023-05-10T10:44:31.967Z,2.07
2023-05-10T10:47:12.733Z,2.22
2023-05-10T10:49:41.042Z,2.20
2023-05-10T10:52:16.732Z,1.83
2023-05-10T10:54:52.704Z,2.10
2023-05-10T10:57:22.689Z,2.10
2023-05-10T10:59:50.745Z,2.10
2023-05-10T11:02:36.321Z,1.98
2023-05-10T11:05:47.324Z,1.77
2023-05-10T11:08:17.561Z,1.50
2023-05-10T11:10:54.213Z,1.70
2023-05-10T11:13:33.109Z,2.00
2023-05-10T11:16:28.893Z,1.98
2023-05-10T11:19:04.631Z,1.73
2023-05-10T11:21:33.692Z,1.87
2023-05-10T11:24:02.257Z,1.60
2023-05-10T11:26:35.352Z,1.50
2023-05-10T11:29:05.496Z,1.40
2023-05-10T11:31:33.179Z,1.67
2023-05-10T11:34:04.514Z,1.60
2023-05-10T11:36:37.675Z,1.70
2023-05-10T11:39:06.351Z,1.73
2023-05-10T11:41:34.679Z,1.35
2023-05-10T11:44:03.037Z,1.60
2023-05-10T11:46:30.882Z,1.48
2023-05-10T11:49:08.036Z,1.50
2023-05-10T11:51:40.376Z,1.52
2023-05-10T11:54:13.360Z,1.62
2023-05-10T11:56:41.755Z,1.80
2023-05-10T11:59:09.643Z,1.30
2023-05-10T12:01:37.278Z,1.40
2023-05-10T12:04:05.367Z,1.67
2023-05-10T12:06:33.829Z,0.95
2023-05-10T12:09:06.776Z,1.70
2023-05-10T12:11:38.420Z,1.80
2023-05-10T12:14:06.420Z,1.60
2023-05-10T12:16:34.416Z,1.37
2023-05-10T12:19:02.130Z,1.30
2023-05-10T12:21:31.630Z,1.23
2023-05-10T12:24:06.395Z,1.30
2023-05-10T12:26:34.155Z,1.77
2023-05-10T12:29:18.921Z,1.10
2023-05-10T12:31:55.573Z,1.00
2023-05-10T12:34:41.536Z,1.50
2023-05-10T12:37:08.957Z,1.77
2023-05-10T12:39:41.300Z,1.43
2023-05-10T12:42:09.425Z,1.60
2023-05-10T12:44:37.179Z,1.30
2023-05-10T12:47:04.724Z,1.83
2023-05-10T12:49:32.350Z,1.30
2023-05-10T12:52:00.182Z,1.90
2023-05-10T12:54:27.619Z,1.40
2023-05-10T12:56:55.249Z,1.27
2023-05-10T12:59:23.903Z,1.30
2023-05-10T13:01:51.523Z,1.05
2023-05-10T13:04:18.996Z,1.57
2023-05-10T13:06:46.863Z,1.60
2023-05-10T13:09:14.368Z,1.50
2023-05-10T13:11:42.243Z,1.37
2023-05-10T13:14:10.063Z,1.80
2023-05-10T13:16:37.668Z,1.80
2023-05-10T13:19:05.477Z,2.08
2023-05-10T13:21:33.504Z,1.50
2023-05-10T13:24:01.372Z,1.42
2023-05-10T13:26:29.204Z,1.45
2023-05-10T13:28:57.006Z,1.57
2023-05-10T13:31:24.503Z,1.50
2023-05-10T13:33:52.206Z,1.42
2023-05-10T13:36:19.952Z,1.20
2023-05-10T13:38:47.575Z,0.98
2023-05-10T13:41:15.160Z,1.20
2023-05-10T13:43:43.236Z,1.23
2023-05-10T13:46:10.747Z,0.88
2023-05-10T13:48:39.124Z,0.90
2023-05-10T13:51:07.111Z,1.45
2023-05-10T13:53:34.581Z,1.40
2023-05-10T13:56:03.239Z,1.20
2023-05-10T13:58:31.226Z,1.00
2023-05-10T14:00:58.965Z,1.20
2023-05-10T14:03:26.848Z,1.30
2023-05-10T14:05:54.536Z,1.13
2023-05-10T14:08:22.624Z,1.35
2023-05-10T14:10:51.713Z,1.00
2023-05-10T14:13:19.355Z,1.00
2023-05-10T14:15:47.020Z,1.17
2023-05-10T14:18:15.304Z,1.30
2023-05-10T14:20:42.841Z,1.02
2023-05-10T14:23:11.963Z,1.00
2023-05-10T14:25:42.894Z,1.10
2023-05-10T14:28:10.620Z,1.10
2023-05-10T14:30:38.179Z,1.07
2023-05-10T14:33:05.991Z,1.10
2023-05-10T14:35:33.892Z,0.82
2023-05-10T14:38:01.511Z,1.00
2023-05-10T14:40:29.724Z,0.90
2023-05-10T14:42:57.372Z,1.20
2023-05-10T14:45:24.944Z,1.12
2023-05-10T14:47:52.822Z,1.25
2023-05-10T14:50:35.314Z,0.70
2023-05-10T14:53:04.805Z,1.20
2023-05-10T14:55:32.348Z,1.00
2023-05-10T14:57:59.854Z,1.00
2023-05-10T15:00:28.845Z,1.00
2023-05-10T15:02:56.849Z,0.88
2023-05-10T15:05:24.795Z,1.08
2023-05-10T15:07:52.835Z,2.30
2023-05-10T15:10:20.424Z,1.15
2023-05-10T15:12:48.003Z,0.90
2023-05-10T15:15:16.269Z,0.98
2023-05-10T15:17:44.465Z,0.95
2023-05-10T15:20:12.301Z,1.00
2023-05-10T15:22:40.089Z,0.98
2023-05-10T15:25:07.989Z,0.75
2023-05-10T15:27:35.793Z,1.00
2023-05-10T15:30:04.053Z,1.02
2023-05-10T15:32:31.664Z,1.03
2023-05-10T15:34:59.404Z,1.00
2023-05-10T15:37:27.250Z,1.00
2023-05-10T15:39:56.342Z,9.07
2023-05-10T15:42:24.975Z,1.50
2023-05-10T15:44:52.738Z,1.00
2023-05-10T15:47:20.281Z,1.10
2023-05-10T15:49:47.857Z,1.20
2023-05-10T15:52:15.749Z,0.85
2023-05-10T15:54:43.179Z,0.90
2023-05-10T15:57:10.748Z,1.10
2023-05-10T15:59:38.661Z,0.70
2023-05-10T16:02:07.387Z,0.90
2023-05-10T16:04:35.204Z,0.90
2023-05-10T16:07:02.698Z,0.80
2023-05-10T16:09:30.109Z,0.90
2023-05-10T16:11:57.916Z,0.95
2023-05-10T16:14:25.473Z,0.90
2023-05-10T16:16:53.128Z,0.82
2023-05-10T16:19:21.033Z,0.90
2023-05-10T16:21:48.546Z,1.00
2023-05-10T16:24:16.016Z,0.90
2023-05-10T16:26:43.900Z,0.90
2023-05-10T16:29:11.381Z,1.00
2023-05-10T16:31:39.071Z,0.93
2023-05-10T16:34:07.149Z,0.80
2023-05-10T16:36:35.296Z,0.93
2023-05-10T16:39:02.822Z,0.60
2023-05-10T16:41:34.068Z,0.73
2023-05-10T16:44:02.416Z,0.70
2023-05-10T16:46:30.274Z,0.67
2023-05-10T16:48:59.756Z,0.90
2023-05-10T16:51:27.371Z,0.90
2023-05-10T16:53:55.084Z,0.60
2023-05-10T16:56:23.328Z,1.10
2023-05-10T16:58:50.930Z,0.93
2023-05-10T17:01:18.677Z,0.93
2023-05-10T17:03:46.334Z,0.80
2023-05-10T17:06:14.241Z,1.08
2023-05-10T17:08:42.124Z,1.00
2023-05-10T17:11:09.588Z,1.07
2023-05-10T17:13:38.780Z,1.27
2023-05-10T17:16:08.222Z,0.73
2023-05-10T17:18:36.600Z,0.80
2023-05-10T17:21:04.246Z,0.90
2023-05-10T17:23:32.043Z,1.00
2023-05-10T17:26:01.570Z,1.12
2023-05-10T17:28:29.463Z,0.98
2023-05-10T17:30:58.094Z,1.75
2023-05-10T17:33:26.017Z,1.02
2023-05-10T17:35:53.612Z,1.30
2023-05-10T17:38:21.384Z,1.25
2023-05-10T17:40:48.921Z,1.08
2023-05-10T17:43:16.437Z,1.20
2023-05-10T17:45:46.661Z,1.20
2023-05-10T17:48:14.189Z,1.20
2023-05-10T17:50:43.447Z,1.20
2023-05-10T17:53:11.313Z,1.00
2023-05-10T17:55:42.276Z,1.10
2023-05-10T17:58:11.142Z,1.30
2023-05-10T18:00:39.127Z,1.30
2023-05-10T18:03:07.065Z,1.58
2023-05-10T18:05:39.235Z,1.20
2023-05-10T18:08:07.565Z,1.40
2023-05-10T18:10:38.120Z,1.40
2023-05-10T18:13:08.676Z,1.30
2023-05-10T18:15:36.507Z,1.65
2023-05-10T18:18:04.960Z,1.20
2023-05-10T18:20:33.011Z,1.27
2023-05-10T18:23:00.593Z,1.40
2023-05-10T18:25:28.225Z,1.30
2023-05-10T18:27:56.384Z,1.45
2023-05-10T18:30:24.314Z,1.40
2023-05-10T18:32:52.315Z,1.20
2023-05-10T18:35:21.446Z,1.50
2023-05-10T18:37:50.592Z,1.40
2023-05-10T18:40:19.627Z,1.25
2023-05-10T18:42:50.055Z,1.60
2023-05-10T18:45:18.397Z,1.48
2023-05-10T18:47:46.690Z,1.20
2023-05-10T18:50:19.438Z,1.40
2023-05-10T18:52:47.522Z,1.45
2023-05-10T18:55:16.005Z,1.27
2023-05-10T18:57:45.147Z,1.50
2023-05-10T19:00:13.601Z,1.50
2023-05-10T19:02:41.861Z,1.23
2023-05-10T19:05:10.158Z,1.37
2023-05-10T19:07:38.301Z,1.10
2023-05-10T19:10:07.088Z,0.98
2023-05-10T19:12:35.350Z,1.10
2023-05-10T19:15:03.897Z,1.33
2023-05-10T19:17:32.438Z,1.25
2023-05-10T19:20:03.953Z,1.20
2023-05-10T19:22:45.501Z,1.20
2023-05-10T19:25:21.630Z,1.50
2023-05-10T19:27:53.137Z,1.17
2023-05-10T19:30:21.624Z,1.40
2023-05-10T19:32:50.048Z,1.15
2023-05-10T19:35:18.378Z,0.90
2023-05-10T19:37:47.296Z,1.15
2023-05-10T19:40:17.291Z,1.33
2023-05-10T19:42:45.403Z,1.40
2023-05-10T19:45:15.578Z,1.30
2023-05-10T19:47:44.133Z,1.15
2023-05-10T19:50:12.694Z,1.50
2023-05-10T19:52:40.648Z,1.40
2023-05-10T19:55:09.411Z,1.33
2023-05-10T19:57:38.006Z,1.37
2023-05-10T20:00:06.865Z,1.52
2023-05-10T20:02:38.996Z,1.30
2023-05-10T20:05:07.745Z,1.50
2023-05-10T20:07:36.986Z,1.02
2023-05-10T20:10:05.231Z,1.27
2023-05-10T20:12:33.536Z,1.30
2023-05-10T20:15:01.039Z,1.30
2023-05-10T20:17:28.815Z,1.30
2023-05-10T20:19:56.703Z,1.50
2023-05-10T20:22:25.182Z,1.00
2023-05-10T20:24:55.718Z,1.90
2023-05-10T20:27:25.104Z,1.20
2023-05-10T20:29:53.233Z,1.10
2023-05-10T20:32:21.109Z,1.58
2023-05-10T20:34:49.782Z,1.10
2023-05-10T20:37:17.804Z,1.00
2023-05-10T20:39:45.685Z,1.30
2023-05-10T20:42:13.940Z,1.20
2023-05-10T20:44:41.988Z,1.40
2023-05-10T20:47:10.056Z,1.12
2023-05-10T20:49:38.335Z,1.12
2023-05-10T20:52:05.947Z,1.10
2023-05-10T20:54:33.586Z,1.03
2023-05-10T20:57:04.093Z,1.25
2023-05-10T20:59:31.564Z,1.30
2023-05-10T21:01:59.138Z,1.25
2023-05-10T21:04:27.227Z,1.30
2023-05-10T21:06:56.948Z,1.27
2023-05-10T21:09:24.517Z,1.10
2023-05-10T21:11:52.353Z,1.05
2023-05-10T21:14:20.625Z,1.40
2023-05-10T21:16:48.157Z,1.30
2023-05-10T21:19:17.133Z,1.30
2023-05-10T21:21:44.614Z,1.20
2023-05-10T21:24:12.493Z,1.20
2023-05-10T21:26:40.550Z,1.30
2023-05-10T21:29:08.173Z,1.17
2023-05-10T21:31:35.635Z,1.40
2023-05-10T21:34:03.611Z,1.40
2023-05-10T21:36:31.094Z,1.00
2023-05-10T21:38:58.553Z,1.48
2023-05-10T21:41:26.689Z,1.20
2023-05-10T21:43:54.191Z,1.30
2023-05-10T21:46:21.739Z,1.52
2023-05-10T21:48:49.459Z,1.23
2023-05-10T21:51:16.945Z,1.12
2023-05-10T21:53:44.438Z,1.10
2023-05-10T21:56:12.218Z,1.20
2023-05-10T21:58:39.707Z,1.40
2023-05-10T22:01:07.257Z,1.12
2023-05-10T22:03:35.146Z,1.40
2023-05-10T22:06:02.636Z,1.30
2023-05-10T22:08:30.159Z,1.13
2023-05-10T22:10:57.905Z,1.15
2023-05-10T22:13:25.761Z,1.00
2023-05-10T22:15:53.263Z,1.30
2023-05-10T22:18:21.192Z,1.17
2023-05-10T22:20:48.761Z,1.00
2023-05-10T22:23:16.207Z,1.20
2023-05-10T22:25:43.963Z,1.33
2023-05-10T22:28:11.417Z,1.00
2023-05-10T22:30:38.860Z,1.27
2023-05-10T22:33:06.703Z,1.10
2023-05-10T22:35:34.298Z,1.12
2023-05-10T22:38:01.792Z,1.73
2023-05-10T22:40:29.634Z,1.23
2023-05-10T22:42:57.142Z,1.10
2023-05-10T22:45:24.662Z,1.10
2023-05-10T22:47:52.472Z,1.15
2023-05-10T22:50:20.893Z,0.68
2023-05-10T22:52:48.634Z,1.00
2023-05-10T22:55:16.872Z,1.10
2023-05-10T22:57:44.305Z,1.33
2023-05-10T23:00:12.506Z,1.20
2023-05-10T23:02:40.270Z,1.08
2023-05-10T23:05:08.307Z,1.20
2023-05-10T23:07:35.881Z,1.30
2023-05-10T23:10:04.882Z,1.00
2023-05-10T23:12:32.621Z,1.12
2023-05-10T23:15:00.124Z,1.12
2023-05-10T23:17:27.901Z,1.10
2023-05-10T23:19:56.136Z,1.30
2023-05-10T23:22:23.620Z,1.43
2023-05-10T23:24:51.632Z,1.10
2023-05-10T23:27:19.092Z,1.58
2023-05-10T23:29:46.549Z,1.27
2023-05-10T23:32:14.328Z,1.12
2023-05-10T23:34:41.823Z,1.10
2023-05-10T23:37:09.298Z,1.17
2023-05-10T23:39:37.055Z,1.25
2023-05-10T23:42:04.645Z,1.20
2023-05-10T23:44:32.067Z,1.30
2023-05-10T23:47:00.011Z,1.50
2023-05-10T23:49:27.589Z,1.98
2023-05-10T23:51:55.102Z,1.23
2023-05-10T23:54:22.896Z,1.20
2023-05-10T23:56:51.551Z,1.37
2023-05-10T23:59:19.022Z,1.30
